Time,TemperatureF,DewpointF,PressureIn,WindDirection,WindDirectionDegrees,WindSpeedMPH,WindSpeedGustMPH,Humidity,HourlyPrecipIn,Conditions,Clouds,dailyrainin,SolarRadiationWatts/m^2,SoftwareType,DateUTC
2013-03-01 00:22:00,58.0,42.0,30.44,ESE,102,6.0,10.0,56,-99.99,,,-99.99,0.000000,,2013-03-01 08:22:00,
2013-03-01 00:32:00,58.0,42.0,30.44,ESE,102,6.0,10.0,56,-99.99,,,-99.99,0.000000,,2013-03-01 08:32:00,
2013-03-01 00:40:00,58.0,40.0,30.44,East,80,5.0,8.0,51,-99.99,,,-99.99,0.000000,,2013-03-01 08:40:00,
2013-03-01 01:22:00,58.0,40.0,30.44,East,80,5.0,8.0,51,-99.99,,,-99.99,0.000000,,2013-03-01 09:22:00,
2013-03-01 01:32:00,58.0,40.0,30.44,East,80,5.0,8.0,51,-99.99,,,-99.99,0.000000,,2013-03-01 09:32:00,
2013-03-01 01:40:00,57.0,40.0,30.44,West,262,4.0,5.0,54,-99.99,,,-99.99,0.000000,,2013-03-01 09:40:00,
2013-03-01 02:21:00,57.0,40.0,30.44,West,262,4.0,5.0,54,-99.99,,,-99.99,0.000000,,2013-03-01 10:21:00,
2013-03-01 02:32:00,57.0,40.0,30.44,West,262,4.0,5.0,54,-99.99,,,-99.99,0.000000,,2013-03-01 10:32:00,
2013-03-01 03:22:00,58.0,36.0,30.43,NE,36,5.0,8.0,43,-99.99,,,-99.99,0.000000,,2013-03-01 11:22:00,
2013-03-01 04:21:00,59.0,35.0,30.41,ENE,67,9.0,16.0,41,-99.99,,,-99.99,0.000000,,2013-03-01 12:21:00,
2013-03-01 05:21:00,58.0,36.0,30.40,SE,128,6.0,11.0,44,-99.99,,,-99.99,0.000000,,2013-03-01 13:21:00,
2013-03-01 05:40:00,56.0,37.0,30.40,East,98,3.0,6.0,50,-99.99,,,-99.99,0.000000,,2013-03-01 13:40:00,
2013-03-01 06:21:00,56.0,37.0,30.40,East,98,3.0,6.0,50,-99.99,,,-99.99,0.000000,,2013-03-01 14:21:00,
2013-03-01 06:32:00,56.0,37.0,30.40,East,98,3.0,6.0,50,-99.99,,,-99.99,0.000000,,2013-03-01 14:32:00,
2013-03-01 06:40:00,55.0,39.0,30.40,SSW,204,2.0,5.0,55,-99.99,,,-99.99,4.000000,,2013-03-01 14:40:00,
2013-03-01 07:21:00,55.0,39.0,30.40,SSW,204,2.0,5.0,55,-99.99,,,-99.99,4.000000,,2013-03-01 15:21:00,
2013-03-01 07:31:00,55.0,39.0,30.40,SSW,204,2.0,5.0,55,-99.99,,,-99.99,4.000000,,2013-03-01 15:31:00,
2013-03-01 07:40:00,57.0,38.0,30.39,SSW,203,5.0,9.0,50,-99.99,,,-99.99,210.000000,,2013-03-01 15:40:00,
2013-03-01 08:21:00,57.0,38.0,30.39,SSW,203,5.0,9.0,50,-99.99,,,-99.99,210.000000,,2013-03-01 16:21:00,
2013-03-01 08:32:00,57.0,38.0,30.39,SSW,203,5.0,9.0,50,-99.99,,,-99.99,210.000000,,2013-03-01 16:32:00,
2013-03-01 08:40:00,61.0,39.0,30.40,SSE,157,4.0,9.0,44,-99.99,,,-99.99,436.000000,,2013-03-01 16:40:00,
2013-03-01 09:21:00,61.0,39.0,30.40,SSE,157,4.0,9.0,44,-99.99,,,-99.99,436.000000,,2013-03-01 17:21:00,
2013-03-01 09:31:00,61.0,39.0,30.40,SSE,157,4.0,9.0,44,-99.99,,,-99.99,436.000000,,2013-03-01 17:31:00,
2013-03-01 09:40:00,62.0,40.0,30.39,SSW,205,4.0,7.0,44,-99.99,,,-99.99,626.000000,,2013-03-01 17:40:00,
2013-03-01 10:22:00,62.0,40.0,30.39,SSW,205,4.0,7.0,44,-99.99,,,-99.99,626.000000,,2013-03-01 18:22:00,
2013-03-01 10:31:00,62.0,40.0,30.39,SSW,205,4.0,7.0,44,-99.99,,,-99.99,626.000000,,2013-03-01 18:31:00,
2013-03-01 10:40:00,65.0,38.0,30.39,SSW,209,2.0,7.0,38,-99.99,,,-99.99,760.000000,,2013-03-01 18:40:00,
2013-03-01 11:21:00,65.0,38.0,30.39,SSW,209,2.0,7.0,38,-99.99,,,-99.99,760.000000,,2013-03-01 19:21:00,
2013-03-01 11:31:00,65.0,38.0,30.39,SSW,209,2.0,7.0,38,-99.99,,,-99.99,760.000000,,2013-03-01 19:31:00,
2013-03-01 11:40:00,66.0,40.0,30.37,North,356,2.0,5.0,38,-99.99,,,-99.99,828.000000,,2013-03-01 19:40:00,
2013-03-01 12:21:00,66.0,40.0,30.37,North,356,2.0,5.0,38,-99.99,,,-99.99,828.000000,,2013-03-01 20:21:00,
2013-03-01 12:31:00,66.0,40.0,30.37,North,356,2.0,5.0,38,-99.99,,,-99.99,828.000000,,2013-03-01 20:31:00,
2013-03-01 12:40:00,66.0,41.0,30.35,West,266,4.0,7.0,41,-99.99,,,-99.99,835.000000,,2013-03-01 20:40:00,
2013-03-01 13:21:00,66.0,41.0,30.35,West,266,4.0,7.0,41,-99.99,,,-99.99,835.000000,,2013-03-01 21:21:00,
2013-03-01 13:31:00,66.0,41.0,30.35,West,266,4.0,7.0,41,-99.99,,,-99.99,835.000000,,2013-03-01 21:31:00,
2013-03-01 13:40:00,65.0,38.0,30.32,WNW,283,4.0,7.0,37,-99.99,,,-99.99,769.000000,,2013-03-01 21:40:00,
2013-03-01 14:21:00,65.0,38.0,30.32,WNW,283,4.0,7.0,37,-99.99,,,-99.99,769.000000,,2013-03-01 22:21:00,
2013-03-01 14:31:00,65.0,38.0,30.32,WNW,283,4.0,7.0,37,-99.99,,,-99.99,769.000000,,2013-03-01 22:31:00,
2013-03-01 14:40:00,66.0,39.0,30.31,West,266,4.0,7.0,36,-99.99,,,-99.99,650.000000,,2013-03-01 22:40:00,
2013-03-01 15:31:00,66.0,39.0,30.31,West,266,4.0,7.0,36,-99.99,,,-99.99,650.000000,,2013-03-01 23:31:00,
2013-03-01 15:40:00,68.0,38.0,30.31,West,261,3.0,6.0,34,-99.99,,,-99.99,459.000000,,2013-03-01 23:40:00,
2013-03-01 16:31:00,68.0,38.0,30.31,West,261,3.0,6.0,34,-99.99,,,-99.99,459.000000,,2013-03-02 00:31:00,
2013-03-01 16:40:00,68.0,38.0,30.30,NNE,15,2.0,5.0,33,-99.99,,,-99.99,259.000000,,2013-03-02 00:40:00,
2013-03-01 17:21:00,68.0,38.0,30.30,NNE,15,2.0,5.0,33,-99.99,,,-99.99,259.000000,,2013-03-02 01:21:00,
2013-03-01 17:31:00,68.0,38.0,30.30,NNE,15,2.0,5.0,33,-99.99,,,-99.99,259.000000,,2013-03-02 01:31:00,
2013-03-01 17:40:00,63.0,39.0,30.30,SE,130,1.0,4.0,41,-99.99,,,-99.99,32.000000,,2013-03-02 01:40:00,
2013-03-01 18:21:00,63.0,39.0,30.30,SE,130,1.0,4.0,41,-99.99,,,-99.99,32.000000,,2013-03-02 02:21:00,
2013-03-01 18:32:00,63.0,39.0,30.30,SE,130,1.0,4.0,41,-99.99,,,-99.99,32.000000,,2013-03-02 02:32:00,
2013-03-01 18:40:00,63.0,32.0,30.31,SE,130,5.0,7.0,31,-99.99,,,-99.99,0.000000,,2013-03-02 02:40:00,
2013-03-01 19:21:00,63.0,32.0,30.31,SE,130,5.0,7.0,31,-99.99,,,-99.99,0.000000,,2013-03-02 03:21:00,
2013-03-01 19:32:00,63.0,32.0,30.31,SE,130,5.0,7.0,31,-99.99,,,-99.99,0.000000,,2013-03-02 03:32:00,
2013-03-01 20:21:00,63.0,24.0,30.31,ESE,120,9.0,10.0,23,-99.99,,,-99.99,0.000000,,2013-03-02 04:21:00,
2013-03-01 21:22:00,64.0,16.0,30.32,ESE,114,3.0,6.0,15,-99.99,,,-99.99,0.000000,,2013-03-02 05:22:00,
2013-03-01 22:21:00,63.0,18.0,30.32,SE,128,7.0,8.0,17,-99.99,,,-99.99,0.000000,,2013-03-02 06:21:00,
2013-03-01 23:21:00,64.0,16.0,30.32,NNE,17,1.0,3.0,15,-99.99,,,-99.99,0.000000,,2013-03-02 07:21:00,